createdAt,value
2023-02-11T00:00:41.660Z,45.50
2023-02-11T00:03:09.442Z,47.92
2023-02-11T00:05:36.800Z,48.30
2023-02-11T00:08:04.279Z,45.45
2023-02-11T00:10:31.597Z,41.58
2023-02-11T00:12:58.955Z,48.95
2023-02-11T00:15:26.310Z,48.15
2023-02-11T00:17:53.601Z,43.60
2023-02-11T00:20:20.974Z,45.25
2023-02-11T00:22:48.194Z,47.15
2023-02-11T00:25:15.525Z,45.58
2023-02-11T00:27:42.829Z,46.80
2023-02-11T00:30:11.046Z,52.28
2023-02-11T00:32:38.890Z,50.80
2023-02-11T00:35:06.457Z,53.60
2023-02-11T00:37:36.483Z,50.95
2023-02-11T00:40:06.814Z,52.22
2023-02-11T00:42:35.613Z,45.65
2023-02-11T00:45:03.741Z,52.60
2023-02-11T00:47:31.025Z,48.13
2023-02-11T00:49:59.200Z,50.13
2023-02-11T00:52:28.259Z,51.67
2023-02-11T00:54:55.649Z,47.58
2023-02-11T00:57:22.897Z,52.90
2023-02-11T00:59:50.634Z,43.17
2023-02-11T01:02:19.188Z,49.50
2023-02-11T01:04:46.586Z,50.08
2023-02-11T01:07:13.945Z,48.55
2023-02-11T01:09:41.232Z,47.95
2023-02-11T01:12:08.516Z,48.08
2023-02-11T01:14:35.831Z,46.80
2023-02-11T01:17:05.842Z,53.63
2023-02-11T01:19:33.455Z,52.55
2023-02-11T01:22:00.783Z,53.28
2023-02-11T01:24:28.302Z,54.53
2023-02-11T01:26:55.676Z,46.63
2023-02-11T01:29:24.698Z,50.23
2023-02-11T01:31:55.224Z,48.92
2023-02-11T01:34:22.654Z,48.55
2023-02-11T01:36:50.660Z,45.25
2023-02-11T01:39:17.988Z,46.90
2023-02-11T01:41:46.964Z,49.55
2023-02-11T01:44:33.982Z,47.20
2023-02-11T01:47:01.680Z,46.45
2023-02-11T01:49:31.867Z,44.95
2023-02-11T01:52:02.836Z,49.47
2023-02-11T01:54:51.828Z,49.60
2023-02-11T01:57:23.054Z,48.13
2023-02-11T02:00:21.532Z,46.95
2023-02-11T02:03:11.657Z,44.60
2023-02-11T02:05:52.180Z,47.25
2023-02-11T02:08:29.576Z,49.22
2023-02-11T02:10:58.588Z,53.30
2023-02-11T02:13:25.959Z,54.97
2023-02-11T02:15:55.315Z,48.35
2023-02-11T02:21:24.085Z,48.33
2023-02-11T02:24:15.324Z,50.47
2023-02-11T02:27:20.792Z,52.80
2023-02-11T02:29:54.168Z,52.80
2023-02-11T02:32:21.390Z,48.47
2023-02-11T02:35:01.522Z,48.55
2023-02-11T02:37:38.522Z,47.42
2023-02-11T02:40:11.877Z,52.88
2023-02-11T02:42:40.469Z,52.40
2023-02-11T02:45:09.592Z,46.33
2023-02-11T02:47:36.973Z,50.43
2023-02-11T02:50:06.097Z,48.92
2023-02-11T02:52:56.093Z,49.97
2023-02-11T02:56:02.121Z,48.03
2023-02-11T02:58:45.408Z,50.25
2023-02-11T03:01:17.175Z,49.78
2023-02-11T03:06:44.453Z,43.88
2023-02-11T03:09:38.393Z,46.78
2023-02-11T03:12:06.366Z,44.88
2023-02-11T03:14:33.892Z,47.58
2023-02-11T03:17:02.874Z,45.65
2023-02-11T03:19:56.527Z,46.28
2023-02-11T03:22:30.956Z,48.20
2023-02-11T03:24:58.322Z,50.67
2023-02-11T03:27:33.407Z,46.80
2023-02-11T03:30:14.668Z,48.53
2023-02-11T03:32:48.436Z,47.17
2023-02-11T03:35:48.758Z,48.70
2023-02-11T03:38:26.347Z,48.88
2023-02-11T03:40:54.553Z,46.78
2023-02-11T03:43:25.257Z,54.55
2023-02-11T03:45:53.738Z,47.88
2023-02-11T03:48:31.834Z,50.25
2023-02-11T03:51:01.753Z,48.00
2023-02-11T03:53:29.168Z,46.17
2023-02-11T03:55:59.560Z,47.60
2023-02-11T03:58:26.876Z,47.38
2023-02-11T04:00:54.210Z,48.92
2023-02-11T04:03:21.568Z,45.50
2023-02-11T04:05:49.114Z,46.85
2023-02-11T04:08:16.553Z,51.47
2023-02-11T04:10:43.898Z,51.20
2023-02-11T04:13:11.198Z,46.92
2023-02-11T04:15:38.462Z,48.20
2023-02-11T04:18:05.743Z,47.78
2023-02-11T04:20:33.051Z,46.08
2023-02-11T04:23:00.316Z,50.30
2023-02-11T04:25:27.861Z,41.33
2023-02-11T04:27:55.289Z,44.78
2023-02-11T04:30:22.903Z,47.35
2023-02-11T04:32:50.167Z,49.38
2023-02-11T04:35:17.566Z,49.47
2023-02-11T04:37:44.866Z,46.95
2023-02-11T04:40:12.623Z,49.15
2023-02-11T04:42:40.312Z,47.17
2023-02-11T04:45:08.027Z,46.40
2023-02-11T04:47:36.196Z,45.63
2023-02-11T04:50:03.907Z,46.60
2023-02-11T04:52:31.258Z,43.65
2023-02-11T04:54:58.601Z,49.35
2023-02-11T04:57:25.817Z,45.17
2023-02-11T04:59:53.079Z,44.05
2023-02-11T05:02:20.477Z,46.45
2023-02-11T05:04:47.921Z,49.55
2023-02-11T05:07:15.197Z,47.95
2023-02-11T05:09:42.472Z,48.67
2023-02-11T05:12:10.057Z,42.97
2023-02-11T05:14:37.406Z,45.03
2023-02-11T05:17:04.636Z,48.80
2023-02-11T05:19:32.119Z,46.42
2023-02-11T05:22:02.973Z,42.30
2023-02-11T05:24:32.395Z,48.05
2023-02-11T05:27:00.173Z,50.03
2023-02-11T05:29:27.846Z,45.60
2023-02-11T05:31:55.200Z,44.33
2023-02-11T05:34:22.545Z,46.45
2023-02-11T05:36:50.279Z,44.03
2023-02-11T05:39:17.670Z,43.08
2023-02-11T05:41:44.937Z,45.35
2023-02-11T05:44:12.208Z,41.67
2023-02-11T05:46:39.677Z,43.38
2023-02-11T05:49:07.035Z,47.42
2023-02-11T05:51:34.217Z,44.42
2023-02-11T05:54:01.836Z,47.35
2023-02-11T05:56:29.182Z,46.53
2023-02-11T05:58:59.062Z,44.97
2023-02-11T06:01:27.149Z,45.00
2023-02-11T06:03:54.967Z,45.05
2023-02-11T06:06:22.246Z,42.33
2023-02-11T06:08:49.568Z,46.15
2023-02-11T06:11:17.294Z,44.83
2023-02-11T06:13:44.513Z,44.00
2023-02-11T06:16:21.847Z,45.95
2023-02-11T06:18:55.812Z,46.72
2023-02-11T06:21:26.471Z,47.35
2023-02-11T06:23:58.087Z,43.00
2023-02-11T06:26:25.576Z,46.35
2023-02-11T06:28:52.931Z,45.88
2023-02-11T06:31:20.229Z,42.67
2023-02-11T06:33:47.728Z,40.72
2023-02-11T06:36:19.430Z,45.10
2023-02-11T06:38:47.158Z,43.72
2023-02-11T06:41:16.495Z,48.03
2023-02-11T06:43:50.425Z,44.08
2023-02-11T06:46:17.758Z,45.83
2023-02-11T06:48:45.225Z,46.17
2023-02-11T06:51:13.822Z,41.35
2023-02-11T06:53:43.989Z,41.70
2023-02-11T06:56:16.083Z,41.50
2023-02-11T06:58:43.417Z,43.20
2023-02-11T07:01:14.019Z,42.72
2023-02-11T07:03:46.849Z,42.03
2023-02-11T07:06:20.380Z,43.97
2023-02-11T07:08:48.623Z,49.10
2023-02-11T07:11:24.467Z,46.50
2023-02-11T07:13:53.818Z,44.35
2023-02-11T07:16:21.211Z,47.47
2023-02-11T07:18:48.976Z,46.40
2023-02-11T07:21:19.435Z,44.97
2023-02-11T07:23:48.340Z,43.10
2023-02-11T07:26:18.202Z,43.13
2023-02-11T07:28:45.941Z,47.15
2023-02-11T07:31:16.180Z,42.25
2023-02-11T07:33:45.798Z,47.45
2023-02-11T07:36:14.788Z,45.55
2023-02-11T07:38:42.497Z,45.20
2023-02-11T07:41:12.427Z,46.17
2023-02-11T07:43:40.279Z,42.63
2023-02-11T07:46:09.986Z,44.90
2023-02-11T07:48:37.369Z,47.25
2023-02-11T07:51:16.858Z,43.80
2023-02-11T07:53:44.656Z,45.90
2023-02-11T07:56:14.167Z,50.83
2023-02-11T07:58:43.064Z,47.97
2023-02-11T08:01:12.631Z,44.30
2023-02-11T08:03:41.987Z,48.05
2023-02-11T08:06:17.787Z,43.30
2023-02-11T08:08:45.420Z,47.10
2023-02-11T08:11:26.786Z,41.70
2023-02-11T08:13:57.073Z,46.15
2023-02-11T08:16:27.341Z,45.70
2023-02-11T08:18:57.730Z,45.53
2023-02-11T08:21:25.723Z,43.05
2023-02-11T08:23:53.312Z,46.47
2023-02-11T08:26:25.325Z,43.05
2023-02-11T08:28:53.612Z,46.60
2023-02-11T08:31:26.457Z,47.78
2023-02-11T08:33:54.936Z,41.88
2023-02-11T08:36:24.974Z,65.20
2023-02-11T08:41:28.054Z,51.22
2023-02-11T08:43:56.080Z,43.95
2023-02-11T08:46:23.375Z,49.65
2023-02-11T08:48:50.905Z,40.72
2023-02-11T08:51:21.061Z,41.72
2023-02-11T08:53:48.802Z,45.00
2023-02-11T08:56:16.985Z,44.60
2023-02-11T08:58:44.636Z,44.17
2023-02-11T09:01:13.590Z,44.28
2023-02-11T09:03:41.120Z,48.92
2023-02-11T09:06:10.012Z,43.50
2023-02-11T09:08:38.451Z,43.85
2023-02-11T09:11:06.273Z,42.40
2023-02-11T09:13:33.815Z,48.90
2023-02-11T09:16:02.669Z,44.88
2023-02-11T09:18:30.402Z,44.63
2023-02-11T09:21:11.630Z,46.53
2023-02-11T09:23:41.768Z,41.20
2023-02-11T09:26:18.242Z,48.13
2023-02-11T09:28:46.223Z,45.83
2023-02-11T09:31:16.775Z,42.17
2023-02-11T09:33:48.958Z,46.72
2023-02-11T09:36:19.299Z,69.40
2023-02-11T09:38:50.946Z,38.65
2023-02-11T09:41:25.577Z,40.95
2023-02-11T09:44:02.964Z,39.15
2023-02-11T09:46:37.806Z,38.72
2023-02-11T09:49:05.592Z,36.65
2023-02-11T09:51:49.444Z,39.70
2023-02-11T09:54:29.569Z,38.05
2023-02-11T09:56:57.207Z,35.58
2023-02-11T09:59:24.515Z,40.78
2023-02-11T10:01:59.485Z,37.60
2023-02-11T10:04:49.501Z,32.40
2023-02-11T10:09:59.357Z,34.95
2023-02-11T10:14:53.905Z,35.63
2023-02-11T10:17:37.225Z,33.70
2023-02-11T10:20:23.881Z,29.13
2023-02-11T10:22:57.657Z,30.33
2023-02-11T10:25:35.549Z,31.80
2023-02-11T10:28:13.795Z,30.75
2023-02-11T10:30:46.541Z,28.88
2023-02-11T10:33:24.883Z,25.92
2023-02-11T10:35:53.006Z,31.05
2023-02-11T10:38:20.340Z,32.47
2023-02-11T10:40:48.067Z,28.30
2023-02-11T10:43:17.784Z,32.22
2023-02-11T10:45:49.218Z,33.38
2023-02-11T10:48:41.860Z,35.67
2023-02-11T10:51:15.672Z,40.70
2023-02-11T10:53:43.344Z,36.35
2023-02-11T10:56:13.029Z,35.13
2023-02-11T10:58:46.489Z,36.00
2023-02-11T11:01:23.956Z,33.70
2023-02-11T11:03:52.844Z,35.30
2023-02-11T11:06:31.598Z,30.67
2023-02-11T11:08:59.384Z,31.23
2023-02-11T11:11:27.245Z,30.33
2023-02-11T11:13:59.186Z,29.70
2023-02-11T11:16:30.283Z,26.25
2023-02-11T11:19:06.816Z,24.05
2023-02-11T11:21:41.303Z,29.10
2023-02-11T11:24:20.325Z,25.23
2023-02-11T11:26:50.892Z,27.60
2023-02-11T11:29:20.338Z,26.58
2023-02-11T11:31:50.395Z,30.90
2023-02-11T11:34:45.627Z,26.33
2023-02-11T11:37:15.154Z,27.45
2023-02-11T11:39:42.492Z,28.10
2023-02-11T11:42:43.603Z,24.65
2023-02-11T11:48:06.146Z,24.80
2023-02-11T11:50:45.399Z,26.40
2023-02-11T11:53:31.002Z,28.70
2023-02-11T11:56:03.318Z,27.42
2023-02-11T11:58:31.833Z,25.67
2023-02-11T12:01:29.653Z,25.63
2023-02-11T12:04:25.263Z,24.52
2023-02-11T12:07:04.368Z,24.55
2023-02-11T12:09:55.879Z,25.23
2023-02-11T12:12:38.661Z,25.23
2023-02-11T12:15:08.895Z,25.77
2023-02-11T12:20:54.882Z,24.13
2023-02-11T12:23:50.684Z,28.00
2023-02-11T12:26:24.111Z,27.42
2023-02-11T12:29:02.529Z,25.27
2023-02-11T12:31:44.267Z,26.25
2023-02-11T12:34:25.008Z,24.88
2023-02-11T12:37:21.247Z,30.33
2023-02-11T12:40:15.905Z,23.77
2023-02-11T12:43:10.629Z,25.15
2023-02-11T12:46:16.091Z,23.65
2023-02-11T12:49:09.527Z,26.50
2023-02-11T12:52:01.983Z,24.80
2023-02-11T12:54:46.575Z,20.10
2023-02-11T12:57:18.654Z,19.40
2023-02-11T13:00:06.478Z,21.23
2023-02-11T13:02:54.373Z,21.70
2023-02-11T13:05:38.391Z,25.15
2023-02-11T13:08:22.747Z,23.15
2023-02-11T13:11:03.140Z,22.95
2023-02-11T13:13:46.453Z,21.00
2023-02-11T13:16:18.794Z,22.90
2023-02-11T13:18:52.729Z,20.65
2023-02-11T13:21:28.987Z,23.85
2023-02-11T13:24:01.155Z,24.70
2023-02-11T13:26:46.631Z,27.88
2023-02-11T13:29:27.717Z,22.42
2023-02-11T13:32:15.846Z,22.98
2023-02-11T13:34:43.151Z,20.77
2023-02-11T13:37:21.292Z,26.45
2023-02-11T13:40:11.580Z,23.75
2023-02-11T13:42:56.746Z,26.40
2023-02-11T13:45:41.567Z,23.85
2023-02-11T13:48:38.140Z,22.42
2023-02-11T13:51:08.780Z,24.00
2023-02-11T13:54:02.845Z,22.90
2023-02-11T13:56:33.616Z,25.50
2023-02-11T13:59:03.300Z,27.30
2023-02-11T14:02:23.123Z,21.95
2023-02-11T14:05:31.106Z,23.67
2023-02-11T14:08:26.169Z,21.67
2023-02-11T14:10:57.605Z,23.23
2023-02-11T14:13:29.334Z,21.15
2023-02-11T14:16:31.529Z,23.02
2023-02-11T14:19:04.195Z,21.25
2023-02-11T14:21:37.354Z,18.95
2023-02-11T14:24:04.946Z,17.80
2023-02-11T14:26:54.792Z,20.25
2023-02-11T14:30:03.306Z,18.52
2023-02-11T14:33:12.289Z,21.85
2023-02-11T14:35:47.361Z,19.23
2023-02-11T14:38:36.672Z,21.65
2023-02-11T14:41:25.050Z,25.42
2023-02-11T14:43:58.884Z,21.77
2023-02-11T14:46:30.811Z,21.50
2023-02-11T14:49:01.486Z,21.65
2023-02-11T14:51:32.059Z,20.38
2023-02-11T14:54:22.842Z,23.15
2023-02-11T14:57:29.778Z,20.15
2023-02-11T15:00:03.119Z,20.48
2023-02-11T15:02:36.380Z,19.85
2023-02-11T15:05:39.276Z,16.38
2023-02-11T15:08:08.481Z,19.20
2023-02-11T15:10:43.895Z,15.75
2023-02-11T15:13:20.562Z,18.45
2023-02-11T15:15:48.636Z,14.38
2023-02-11T15:18:22.892Z,19.13
2023-02-11T15:20:52.148Z,14.35
2023-02-11T15:23:23.607Z,11.95
2023-02-11T15:25:56.317Z,14.15
2023-02-11T15:28:25.075Z,15.57
2023-02-11T15:31:12.912Z,14.25
2023-02-11T15:33:40.770Z,12.60
2023-02-11T15:36:11.662Z,14.70
2023-02-11T15:38:40.108Z,13.82
2023-02-11T15:41:07.949Z,14.75
2023-02-11T15:43:43.714Z,11.55
2023-02-11T15:46:14.719Z,19.63
2023-02-11T15:48:45.828Z,12.85
2023-02-11T15:51:35.507Z,14.13
2023-02-11T15:54:19.239Z,14.95
2023-02-11T15:57:03.221Z,14.85
2023-02-11T15:59:38.429Z,19.83
2023-02-11T16:02:08.817Z,16.23
2023-02-11T16:04:36.408Z,16.55
2023-02-11T16:07:05.209Z,15.68
2023-02-11T16:09:35.644Z,15.40
2023-02-11T16:12:18.029Z,15.32
2023-02-11T16:14:45.381Z,14.20
2023-02-11T16:17:23.332Z,15.30
2023-02-11T16:19:52.043Z,16.08
2023-02-11T16:22:24.675Z,14.20
2023-02-11T16:24:53.639Z,16.08
2023-02-11T16:27:30.346Z,14.05
2023-02-11T16:29:58.423Z,15.32
2023-02-11T16:32:27.955Z,15.50
2023-02-11T16:35:01.000Z,17.92
2023-02-11T16:37:28.450Z,14.63
2023-02-11T16:39:56.864Z,15.93
2023-02-11T16:42:24.748Z,18.55
2023-02-11T16:44:52.059Z,12.68
2023-02-11T16:47:25.151Z,15.75
2023-02-11T16:49:55.509Z,18.92
2023-02-11T16:52:24.686Z,19.30
2023-02-11T16:54:52.014Z,14.55
2023-02-11T16:57:22.257Z,15.73
2023-02-11T17:02:26.249Z,16.58
2023-02-11T17:04:54.754Z,17.10
2023-02-11T17:07:22.741Z,18.40
2023-02-11T17:09:56.324Z,19.38
2023-02-11T17:12:27.219Z,20.02
2023-02-11T17:14:54.892Z,18.67
2023-02-11T17:17:23.922Z,18.30
2023-02-11T17:19:51.528Z,18.20
2023-02-11T17:22:19.013Z,19.05
2023-02-11T17:24:46.492Z,21.23
2023-02-11T17:27:17.244Z,20.13
2023-02-11T17:29:46.540Z,22.92
2023-02-11T17:32:14.433Z,21.20
2023-02-11T17:34:41.746Z,20.67
2023-02-11T17:37:09.595Z,20.00
2023-02-11T17:39:39.421Z,20.65
2023-02-11T17:42:08.920Z,21.00
2023-02-11T17:44:37.261Z,20.95
2023-02-11T17:47:30.269Z,23.10
2023-02-11T17:49:57.804Z,21.70
2023-02-11T17:52:27.840Z,24.67
2023-02-11T17:54:55.589Z,22.98
2023-02-11T17:57:23.004Z,21.27
2023-02-11T17:59:51.659Z,22.35
2023-02-11T18:02:19.588Z,23.75
2023-02-11T18:04:47.044Z,18.58
2023-02-11T18:07:14.688Z,20.13
2023-02-11T18:09:42.383Z,19.30
2023-02-11T18:12:10.802Z,20.20
2023-02-11T18:14:40.583Z,17.40
2023-02-11T18:17:07.962Z,18.05
2023-02-11T18:19:36.651Z,18.02
2023-02-11T18:22:04.457Z,19.40
2023-02-11T18:24:31.898Z,18.50
2023-02-11T18:26:59.270Z,16.95
2023-02-11T18:29:27.179Z,17.83
2023-02-11T18:31:56.761Z,17.40
2023-02-11T18:34:24.537Z,17.48
2023-02-11T18:36:52.339Z,17.27
2023-02-11T18:39:20.325Z,16.00
2023-02-11T18:41:50.082Z,17.42
2023-02-11T18:44:22.209Z,16.17
2023-02-11T18:46:53.673Z,15.90
2023-02-11T18:49:21.338Z,17.70
2023-02-11T18:51:48.695Z,17.42
2023-02-11T18:54:16.159Z,13.93
2023-02-11T18:56:43.492Z,14.45
2023-02-11T18:59:11.000Z,15.68
2023-02-11T19:01:40.777Z,17.92
2023-02-11T19:04:08.368Z,18.80
2023-02-11T19:06:37.373Z,16.02
2023-02-11T19:09:10.422Z,19.92
2023-02-11T19:11:54.079Z,18.35
2023-02-11T19:14:21.400Z,18.30
2023-02-11T19:16:50.672Z,19.52
2023-02-11T19:19:18.775Z,18.70
2023-02-11T19:21:46.596Z,19.67
2023-02-11T19:24:19.879Z,18.05
2023-02-11T19:26:48.147Z,18.88
2023-02-11T19:29:15.898Z,20.67
2023-02-11T19:31:44.229Z,18.70
2023-02-11T19:34:14.396Z,19.20
2023-02-11T19:36:42.188Z,21.75
2023-02-11T19:39:10.366Z,22.63
2023-02-11T19:41:38.235Z,22.50
2023-02-11T19:44:06.570Z,20.65
2023-02-11T19:46:37.326Z,22.95
2023-02-11T19:49:05.542Z,21.10
2023-02-11T19:51:33.828Z,22.30
2023-02-11T19:54:01.264Z,23.42
2023-02-11T19:56:33.368Z,28.30
2023-02-11T19:59:04.434Z,24.95
2023-02-11T20:01:32.007Z,24.25
2023-02-11T20:03:59.304Z,21.38
2023-02-11T20:06:29.519Z,20.00
2023-02-11T20:09:06.864Z,15.23
2023-02-11T20:11:35.557Z,17.10
2023-02-11T20:14:03.997Z,16.95
2023-02-11T20:16:46.890Z,17.13
2023-02-11T20:19:18.254Z,17.60
2023-02-11T20:21:47.782Z,16.73
2023-02-11T20:24:19.462Z,14.95
2023-02-11T20:26:51.870Z,12.27
2023-02-11T20:29:23.628Z,14.65
2023-02-11T20:31:53.722Z,15.93
2023-02-11T20:36:52.247Z,12.90
2023-02-11T20:39:22.648Z,12.57
2023-02-11T20:41:51.057Z,13.25
2023-02-11T20:44:18.864Z,14.18
2023-02-11T20:46:46.636Z,11.48
2023-02-11T20:49:16.699Z,11.05
2023-02-11T20:51:44.344Z,11.52
2023-02-11T20:54:14.036Z,11.13
2023-02-11T20:56:41.850Z,12.07
2023-02-11T20:59:11.765Z,10.38
2023-02-11T21:04:12.306Z,11.25
2023-02-11T21:06:42.386Z,9.73
2023-02-11T21:11:38.036Z,11.25
2023-02-11T21:14:06.044Z,14.32
2023-02-11T21:16:33.559Z,11.75
2023-02-11T21:19:01.353Z,13.85
2023-02-11T21:21:29.203Z,12.10
2023-02-11T21:23:56.872Z,11.80
2023-02-11T21:26:24.955Z,11.25
2023-02-11T21:28:54.820Z,11.77
2023-02-11T21:31:33.088Z,12.07
2023-02-11T21:34:00.570Z,11.48
2023-02-11T21:36:29.069Z,12.60
2023-02-11T21:38:56.551Z,12.60
2023-02-11T21:41:24.978Z,12.93
2023-02-11T21:43:52.411Z,14.07
2023-02-11T21:46:21.156Z,16.27
2023-02-11T21:48:49.107Z,14.00
2023-02-11T21:51:20.154Z,13.98
2023-02-11T21:53:47.690Z,13.57
2023-02-11T21:56:17.979Z,12.23
2023-02-11T21:58:46.187Z,13.57
2023-02-11T22:01:17.161Z,12.10
2023-02-11T22:03:45.217Z,11.25
2023-02-11T22:06:16.269Z,11.38
2023-02-11T22:08:43.764Z,15.90
2023-02-11T22:11:12.452Z,11.95
2023-02-11T22:13:40.408Z,11.95
2023-02-11T22:16:13.399Z,13.20
2023-02-11T22:18:41.655Z,14.45
2023-02-11T22:21:20.070Z,12.68
2023-02-11T22:23:48.009Z,12.95
2023-02-11T22:26:21.868Z,12.45
2023-02-11T22:28:50.672Z,13.20
2023-02-11T22:31:21.616Z,14.18
2023-02-11T22:33:49.454Z,15.68
2023-02-11T22:36:25.517Z,17.25
2023-02-11T22:38:53.684Z,18.40
2023-02-11T22:41:22.576Z,16.67
2023-02-11T22:43:50.526Z,20.75
2023-02-11T22:46:19.410Z,18.23
2023-02-11T22:48:47.433Z,18.35
2023-02-11T22:51:23.200Z,16.88
2023-02-11T22:53:55.364Z,19.35
2023-02-11T22:56:23.509Z,19.20
2023-02-11T22:58:51.662Z,18.05
2023-02-11T23:01:19.651Z,20.23
2023-02-11T23:03:47.087Z,19.02
2023-02-11T23:06:14.517Z,19.77
2023-02-11T23:08:43.320Z,18.98
2023-02-11T23:11:19.318Z,17.85
2023-02-11T23:13:48.652Z,19.65
2023-02-11T23:16:19.444Z,20.40
2023-02-11T23:18:48.018Z,22.25
2023-02-11T23:21:24.420Z,18.98
2023-02-11T23:23:57.116Z,20.35
2023-02-11T23:26:24.941Z,19.25
2023-02-11T23:28:52.237Z,18.83
2023-02-11T23:31:31.472Z,16.20
2023-02-11T23:33:58.914Z,16.83
2023-02-11T23:36:26.488Z,15.18
2023-02-11T23:38:53.746Z,14.85
2023-02-11T23:41:21.767Z,13.43
2023-02-11T23:43:51.072Z,15.55
2023-02-11T23:46:19.334Z,14.00
2023-02-11T23:48:46.651Z,14.13
2023-02-11T23:51:14.037Z,11.55
2023-02-11T23:53:41.621Z,12.88
2023-02-11T23:56:10.749Z,13.18
2023-02-11T23:58:37.990Z,12.50
